Time;durP1;ratioP1;P1;durP2;ratioP2;P2;SDS_P1;SDS_P2;PMS_P1;PMS_P2;Temp;Humidity;BMP_temperature;BMP_pressure;BME280_temperature;BME280_humidity;BME280_pressure;Samples;Min_cycle;Max_cycle;Signal;HPM_P1;HPM_P2
2022/08/27 00:02:18;;;;;;;12.23;8.10;;;;;;;21.19;100.00;99871.72;4979023;28;20571;-77
2022/08/27 00:04:43;;;;;;;10.40;8.23;;;;;;;21.14;100.00;99868.75;4991591;28;20187;-73
2022/08/27 00:07:10;;;;;;;11.07;8.10;;;;;;;21.04;100.00;99864.47;4992293;28;20191;-73
2022/08/27 00:09:36;;;;;;;11.50;8.10;;;;;;;21.00;100.00;99859.69;4987525;28;20192;-76
2022/08/27 00:12:02;;;;;;;10.75;8.65;;;;;;;20.99;100.00;99866.72;4987191;28;20525;-75
2022/08/27 00:14:28;;;;;;;17.77;9.63;;;;;;;20.93;100.00;99859.53;4991490;28;20206;-70
2022/08/27 00:16:54;;;;;;;13.20;8.50;;;;;;;20.92;100.00;99858.69;4987514;28;20187;-72
2022/08/27 00:19:20;;;;;;;15.27;9.27;;;;;;;20.85;100.00;99854.25;4986410;28;20262;-70
2022/08/27 00:21:46;;;;;;;14.33;8.97;;;;;;;20.88;100.00;99854.75;4995458;28;20728;-71
2022/08/27 00:24:12;;;;;;;13.80;8.30;;;;;;;20.98;100.00;99851.22;4993277;28;20526;-74
2022/08/27 00:26:38;;;;;;;11.33;8.63;;;;;;;20.87;100.00;99850.50;4991997;28;20175;-74
2022/08/27 00:29:04;;;;;;;10.80;7.90;;;;;;;20.83;100.00;99858.84;4991836;28;20238;-74
2022/08/27 00:31:29;;;;;;;11.07;8.00;;;;;;;20.77;100.00;99863.69;5005033;28;20265;-68
2022/08/27 00:33:56;;;;;;;9.63;7.77;;;;;;;20.80;100.00;99860.78;4989174;28;20600;-73
2022/08/27 00:36:22;;;;;;;9.80;7.97;;;;;;;20.78;100.00;99856.69;4990407;28;20238;-73
2022/08/27 00:38:48;;;;;;;10.07;8.60;;;;;;;21.12;100.00;99867.13;4975734;28;20529;-72
2022/08/27 00:41:13;;;;;;;12.87;8.67;;;;;;;20.77;100.00;99855.03;4991858;28;20257;-72
2022/08/27 00:43:51;;;;;;;10.17;8.63;;;;;;;20.82;100.00;99855.38;4993822;28;20184;-74
2022/08/27 00:46:29;;;;;;;10.47;8.20;;;;;;;20.71;100.00;99859.06;4988322;28;20179;-71
2022/08/27 00:49:01;;;;;;;11.87;8.73;;;;;;;20.67;100.00;99852.50;4992597;28;20246;-71
2022/08/27 00:51:29;;;;;;;12.13;9.37;;;;;;;20.63;100.00;99853.78;4989939;28;20218;-71
2022/08/27 00:53:57;;;;;;;10.83;8.17;;;;;;;20.57;100.00;99855.22;4997966;28;20214;-71
2022/08/27 00:56:30;;;;;;;15.37;9.63;;;;;;;20.46;100.00;99852.88;4993402;28;20179;-71
2022/08/27 00:58:56;;;;;;;11.00;8.27;;;;;;;20.40;100.00;99858.72;4994010;28;20575;-71
2022/08/27 01:01:29;;;;;;;9.57;8.50;;;;;;;20.40;100.00;99845.66;4994997;28;20218;-72
2022/08/27 01:03:57;;;;;;;14.07;9.63;;;;;;;20.45;100.00;99846.84;4999285;28;20249;-72
2022/08/27 01:06:27;;;;;;;12.70;9.20;;;;;;;20.29;100.00;99839.72;4995125;28;20571;-72
2022/08/27 01:09:06;;;;;;;11.47;8.30;;;;;;;20.34;100.00;99843.66;4994628;28;20230;-71
2022/08/27 01:11:32;;;;;;;12.23;9.33;;;;;;;20.40;100.00;99835.19;4995702;28;20253;-71
2022/08/27 01:13:58;;;;;;;16.00;9.90;;;;;;;20.40;100.00;99838.63;4989538;28;20373;-71
2022/08/27 01:16:28;;;;;;;13.87;9.30;;;;;;;20.45;100.00;99846.84;4994743;28;20246;-71
2022/08/27 01:18:56;;;;;;;13.13;9.00;;;;;;;20.48;100.00;99845.72;4994707;28;20681;-71
2022/08/27 01:21:32;;;;;;;15.77;9.40;;;;;;;20.34;100.00;99852.28;4994776;28;20297;-72
2022/08/27 01:24:25;;;;;;;10.00;9.03;;;;;;;20.26;100.00;99850.47;4993440;28;20213;-72
2022/08/27 01:26:51;;;;;;;11.63;9.40;;;;;;;20.27;100.00;99853.91;4991164;28;20214;-72
2022/08/27 01:29:17;;;;;;;9.77;8.57;;;;;;;20.28;100.00;99850.28;4994608;28;20192;-72
2022/08/27 01:31:43;;;;;;;11.70;9.07;;;;;;;20.20;100.00;99858.09;5000369;28;20776;-71
2022/08/27 01:34:08;;;;;;;14.83;9.57;;;;;;;20.20;100.00;99845.03;4996852;28;20184;-71
2022/08/27 01:36:33;;;;;;;17.17;9.20;;;;;;;20.16;100.00;99845.31;4997702;28;20206;-71
2022/08/27 01:38:59;;;;;;;11.10;9.20;;;;;;;20.12;100.00;99844.00;4991352;28;20187;-71
2022/08/27 01:41:25;;;;;;;13.70;9.30;;;;;;;19.96;100.00;99846.50;4988494;28;20227;-71
2022/08/27 01:43:51;;;;;;;12.07;9.63;;;;;;;19.91;100.00;99851.31;4987358;28;20283;-71
2022/08/27 01:46:25;;;;;;;12.23;9.50;;;;;;;19.89;100.00;99851.47;4991247;28;20180;-71
2022/08/27 01:48:51;;;;;;;9.80;8.37;;;;;;;19.93;100.00;99847.63;4994160;28;20194;-71
2022/08/27 01:51:16;;;;;;;13.67;8.60;;;;;;;19.90;100.00;99847.09;4993746;28;20218;-71
2022/08/27 01:53:42;;;;;;;11.00;8.73;;;;;;;19.95;100.00;99850.88;4989554;28;20218;-71
2022/08/27 01:56:07;;;;;;;15.90;9.03;;;;;;;19.91;100.00;99838.28;4992512;28;20647;-71
2022/08/27 01:58:33;;;;;;;14.90;9.90;;;;;;;19.68;100.00;99842.16;4994019;28;20194;-71
2022/08/27 02:01:03;;;;;;;12.63;9.97;;;;;;;19.76;100.00;99836.19;4985274;28;20562;-71
2022/08/27 02:03:29;;;;;;;11.27;9.50;;;;;;;19.73;100.00;99825.22;5001594;28;20190;-71
2022/08/27 02:05:54;;;;;;;12.77;10.07;;;;;;;19.75;100.00;99831.94;4994216;28;20274;-71
2022/08/27 02:08:20;;;;;;;12.27;10.00;;;;;;;19.71;100.00;99824.53;4989372;28;20172;-71
2022/08/27 02:10:47;;;;;;;13.83;9.50;;;;;;;19.58;100.00;99822.31;4995455;28;20244;-71
2022/08/27 02:13:14;;;;;;;10.60;9.30;;;;;;;19.55;100.00;99833.03;4989009;28;20176;-71
2022/08/27 02:15:41;;;;;;;12.00;9.57;;;;;;;19.63;100.00;99835.72;4986181;28;20179;-72
2022/08/27 02:18:09;;;;;;;9.67;8.67;;;;;;;19.75;100.00;99831.13;4994163;28;20179;-71
2022/08/27 02:20:35;;;;;;;14.00;10.17;;;;;;;19.78;100.00;99833.41;4987732;28;20242;-72
2022/08/27 02:23:01;;;;;;;12.40;10.30;;;;;;;19.87;100.00;99831.72;5004518;28;20199;-72
2022/08/27 02:25:27;;;;;;;12.17;9.70;;;;;;;19.98;100.00;99824.50;4993260;28;20180;-71
2022/08/27 02:27:55;;;;;;;10.87;9.77;;;;;;;20.00;100.00;99822.53;4988936;28;20234;-71
2022/08/27 02:30:23;;;;;;;11.60;9.53;;;;;;;20.02;100.00;99821.56;4990387;28;20210;-71
2022/08/27 02:32:48;;;;;;;14.07;9.73;;;;;;;19.99;100.00;99820.06;5007123;28;20184;-71
2022/08/27 02:35:16;;;;;;;13.67;9.37;;;;;;;20.00;100.00;99821.72;4995017;28;20195;-71
2022/08/27 02:37:43;;;;;;;13.97;9.50;;;;;;;20.14;100.00;99822.94;4985842;28;20204;-71
2022/08/27 02:40:15;;;;;;;13.83;9.60;;;;;;;20.19;100.00;99820.69;4980660;28;20235;-71
2022/08/27 02:42:41;;;;;;;14.10;10.03;;;;;;;20.19;100.00;99823.31;5000770;28;20314;-72
2022/08/27 02:45:07;;;;;;;15.50;10.33;;;;;;;20.13;100.00;99824.75;4993444;28;20271;-71
2022/08/27 02:47:33;;;;;;;13.73;10.80;;;;;;;19.98;100.00;99823.66;4992039;28;20549;-71
2022/08/27 02:49:58;;;;;;;12.77;11.17;;;;;;;19.99;100.00;99826.13;4992866;28;20207;-71
2022/08/27 02:52:26;;;;;;;14.40;11.27;;;;;;;19.96;100.00;99823.81;4998595;28;20231;-71
2022/08/27 02:54:51;;;;;;;13.33;10.13;;;;;;;19.95;100.00;99829.19;4993159;28;20206;-72
2022/08/27 02:57:16;;;;;;;17.07;10.37;;;;;;;19.94;100.00;99830.16;4993200;28;21017;-72
2022/08/27 02:59:42;;;;;;;14.67;9.63;;;;;;;19.88;100.00;99823.72;4993238;28;20245;-71
2022/08/27 03:02:08;;;;;;;16.70;10.80;;;;;;;19.86;100.00;99825.69;4971928;28;20223;-71
2022/08/27 03:04:33;;;;;;;12.03;9.83;;;;;;;19.81;100.00;99828.72;4993215;28;20590;-71
2022/08/27 03:06:59;;;;;;;14.07;11.10;;;;;;;19.76;100.00;99827.50;4988607;28;20533;-71
2022/08/27 03:09:24;;;;;;;15.97;11.17;;;;;;;19.68;100.00;99829.09;4987863;28;20241;-71
2022/08/27 03:11:49;;;;;;;15.33;10.37;;;;;;;19.68;100.00;99826.50;4988259;28;20234;-71
2022/08/27 03:14:15;;;;;;;16.50;11.53;;;;;;;19.66;100.00;99832.84;4988702;28;20602;-73
2022/08/27 03:16:40;;;;;;;13.73;10.97;;;;;;;19.74;100.00;99830.28;4995299;28;20234;-71
2022/08/27 03:19:06;;;;;;;11.77;10.23;;;;;;;19.72;100.00;99842.69;4995595;28;20211;-71
2022/08/27 03:21:33;;;;;;;14.60;10.37;;;;;;;19.74;100.00;99830.28;4994086;28;20305;-71
2022/08/27 03:24:00;;;;;;;10.53;9.63;;;;;;;19.71;100.00;99830.59;4995820;28;20187;-71
2022/08/27 03:26:26;;;;;;;17.90;9.90;;;;;;;19.70;100.00;99828.13;4990299;28;20654;-71
2022/08/27 03:28:51;;;;;;;14.30;10.50;;;;;;;19.73;100.00;99840.88;4992926;28;20258;-71
2022/08/27 03:31:25;;;;;;;13.23;10.17;;;;;;;19.79;100.00;99829.84;4983945;28;20260;-72
2022/08/27 03:34:02;;;;;;;12.93;11.00;;;;;;;19.66;100.00;99841.47;4994377;28;20650;-71
2022/08/27 03:36:30;;;;;;;15.27;10.07;;;;;;;19.70;100.00;99835.94;4993762;28;20212;-72
2022/08/27 03:38:56;;;;;;;14.43;11.23;;;;;;;19.77;100.00;99837.84;4990846;28;20186;-71
2022/08/27 03:41:22;;;;;;;15.93;10.83;;;;;;;19.82;100.00;99835.59;4998226;28;20230;-71
2022/08/27 03:43:48;;;;;;;14.10;11.07;;;;;;;19.88;100.00;99835.97;4989366;28;20554;-72
2022/08/27 03:46:14;;;;;;;14.40;11.97;;;;;;;19.78;100.00;99829.03;4992273;28;20186;-72
2022/08/27 03:48:40;;;;;;;16.23;11.63;;;;;;;19.82;100.00;99835.59;4987919;28;20194;-72
2022/08/27 03:51:08;;;;;;;15.03;11.53;;;;;;;19.86;100.00;99827.47;4989666;28;20610;-72
2022/08/27 03:53:35;;;;;;;14.53;11.87;;;;;;;19.71;100.00;99819.31;4999070;28;20539;-71
2022/08/27 03:56:00;;;;;;;14.60;11.33;;;;;;;19.82;100.00;99821.69;4986969;28;20691;-71
2022/08/27 03:58:25;;;;;;;16.80;11.10;;;;;;;19.94;100.00;99827.53;4981221;28;20183;-71
2022/08/27 04:00:51;;;;;;;14.30;12.60;;;;;;;19.96;100.00;99823.81;4982263;28;20285;-72
2022/08/27 04:03:16;;;;;;;14.93;12.17;;;;;;;19.87;100.00;99826.50;4987631;28;20180;-72
2022/08/27 04:05:41;;;;;;;13.67;12.00;;;;;;;19.94;100.00;99827.53;4984167;28;20190;-72
2022/08/27 04:08:09;;;;;;;18.50;12.37;;;;;;;19.98;100.00;99831.47;4987732;28;20259;-72
2022/08/27 04:10:34;;;;;;;16.63;12.70;;;;;;;19.81;100.00;99831.31;4978295;28;20381;-71
2022/08/27 04:12:59;;;;;;;15.20;13.20;;;;;;;19.81;100.00;99830.53;4987589;28;20275;-71
2022/08/27 04:15:25;;;;;;;19.10;11.97;;;;;;;19.94;100.00;99835.38;4981197;28;20213;-72
2022/08/27 04:17:50;;;;;;;20.30;12.27;;;;;;;19.92;100.00;99832.91;4992193;28;20197;-71
2022/08/27 04:20:16;;;;;;;15.03;12.20;;;;;;;20.05;100.00;99840.34;4983967;28;20243;-71
2022/08/27 04:22:41;;;;;;;14.07;12.17;;;;;;;20.19;100.00;99848.63;4987546;28;20180;-71
2022/08/27 04:25:07;;;;;;;14.33;12.83;;;;;;;20.22;100.00;99837.84;4993846;28;20631;-71
2022/08/27 04:27:33;;;;;;;13.77;12.33;;;;;;;20.24;100.00;99847.19;4995899;28;20175;-71
2022/08/27 04:29:59;;;;;;;16.97;12.83;;;;;;;20.26;100.00;99844.44;4997316;28;20568;-71
2022/08/27 04:32:26;;;;;;;13.50;12.20;;;;;;;20.29;100.00;99846.72;4998333;28;20659;-71
2022/08/27 04:34:55;;;;;;;13.07;11.83;;;;;;;20.24;100.00;99847.19;4993075;28;20642;-72
2022/08/27 04:37:21;;;;;;;15.40;11.60;;;;;;;20.28;100.00;99848.53;4990881;28;20180;-72
2022/08/27 04:39:47;;;;;;;16.90;11.80;;;;;;;20.28;100.00;99848.53;4986101;28;20234;-72
2022/08/27 04:42:12;;;;;;;16.33;11.77;;;;;;;20.21;100.00;99852.72;5010332;28;20716;-72
2022/08/27 04:44:38;;;;;;;13.53;11.43;;;;;;;20.22;100.00;99862.19;4983552;28;20180;-72
2022/08/27 04:47:04;;;;;;;16.07;11.50;;;;;;;20.27;100.00;99856.50;4990644;28;20647;-57
2022/08/27 04:49:30;;;;;;;16.00;12.50;;;;;;;20.14;100.00;99856.91;4989548;28;20192;-58
2022/08/27 04:51:56;;;;;;;15.43;11.80;;;;;;;20.11;100.00;99855.41;4996123;28;20241;-57
2022/08/27 04:54:21;;;;;;;15.13;11.37;;;;;;;20.22;100.00;99861.34;4996071;28;20270;-57
2022/08/27 04:56:47;;;;;;;13.43;11.73;;;;;;;20.02;100.00;99856.34;4995559;28;20187;-57
2022/08/27 04:59:13;;;;;;;18.07;12.47;;;;;;;20.21;100.00;99855.31;5010291;28;20533;-58
2022/08/27 05:01:40;;;;;;;12.83;11.53;;;;;;;20.20;100.00;99858.09;4984069;28;20231;-57
2022/08/27 05:04:05;;;;;;;13.73;12.20;;;;;;;20.12;100.00;99849.22;4994707;28;20272;-58
2022/08/27 05:06:31;;;;;;;13.07;11.77;;;;;;;20.29;100.00;99854.56;4995383;28;20211;-58
2022/08/27 05:08:57;;;;;;;13.40;11.77;;;;;;;20.28;100.00;99850.28;4994956;28;20217;-57
2022/08/27 05:11:25;;;;;;;13.03;11.60;;;;;;;20.27;100.00;99856.50;4994702;28;20249;-58
2022/08/27 05:13:52;;;;;;;15.07;12.07;;;;;;;20.18;100.00;99860.88;4999257;28;20630;-58
2022/08/27 05:16:20;;;;;;;14.10;12.50;;;;;;;20.18;100.00;99865.25;4994234;28;20643;-57
2022/08/27 05:18:46;;;;;;;13.47;11.67;;;;;;;20.29;100.00;99871.06;4994833;28;20199;-57
2022/08/27 05:21:20;;;;;;;15.97;12.03;;;;;;;20.31;100.00;99860.44;4989016;28;20269;-58
2022/08/27 05:23:45;;;;;;;23.33;12.03;;;;;;;20.33;100.00;99861.13;5000133;28;20263;-58
2022/08/27 05:26:10;;;;;;;15.43;11.87;;;;;;;20.34;100.00;99864.53;4994043;28;20262;-58
2022/08/27 05:28:36;;;;;;;13.17;11.80;;;;;;;20.43;100.00;99863.66;4994521;28;20176;-58
2022/08/27 05:31:04;;;;;;;17.50;10.40;;;;;;;20.34;100.00;99856.72;4990112;28;20242;-58
2022/08/27 05:33:31;;;;;;;14.27;10.43;;;;;;;20.50;100.00;99862.03;4998464;28;20256;-57
2022/08/27 05:35:58;;;;;;;12.93;10.37;;;;;;;20.53;100.00;99859.13;4996249;28;20194;-57
2022/08/27 05:38:25;;;;;;;12.90;10.53;;;;;;;20.36;100.00;99863.41;4982519;28;20611;-57
2022/08/27 05:41:07;;;;;;;13.70;10.80;;;;;;;20.48;100.00;99864.00;4987420;28;20242;-57
2022/08/27 05:43:35;;;;;;;12.50;10.40;;;;;;;20.55;100.00;99869.41;4996343;28;20187;-58
2022/08/27 05:46:06;;;;;;;14.40;10.87;;;;;;;20.58;100.00;99859.47;4992022;28;20195;-58
2022/08/27 05:48:32;;;;;;;15.67;11.47;;;;;;;20.55;100.00;99872.03;4994831;28;20227;-58
2022/08/27 05:51:07;;;;;;;14.27;9.67;;;;;;;20.54;100.00;99873.84;4991272;28;20229;-57
2022/08/27 05:53:32;;;;;;;13.80;10.30;;;;;;;20.53;100.00;99869.56;5000551;28;20179;-57
2022/08/27 05:55:57;;;;;;;11.80;10.57;;;;;;;20.54;100.00;99868.59;5008021;28;20187;-59
2022/08/27 06:01:07;;;;;;;9.93;8.93;;;;;;;20.94;100.00;99875.03;4990035;28;20293;-58
2022/08/27 06:03:34;;;;;;;10.07;9.07;;;;;;;20.88;100.00;99869.63;4992869;28;20203;-58
2022/08/27 06:06:04;;;;;;;12.10;9.87;;;;;;;20.70;100.00;99872.28;4993055;28;20190;-58
2022/08/27 06:08:29;;;;;;;11.10;9.60;;;;;;;20.74;100.00;99871.84;5008308;28;20187;-58
2022/08/27 06:10:55;;;;;;;13.03;10.03;;;;;;;20.85;100.00;99870.75;4990122;28;20236;-58
2022/08/27 06:13:21;;;;;;;11.83;9.33;;;;;;;20.59;100.00;99876.81;5002462;28;20786;-57
2022/08/27 06:15:46;;;;;;;12.10;10.03;;;;;;;20.69;100.00;99878.47;4993415;28;20250;-59
2022/08/27 06:18:12;;;;;;;14.80;9.43;;;;;;;20.61;100.00;99880.06;4993417;28;20183;-58
2022/08/27 06:20:37;;;;;;;12.87;9.60;;;;;;;20.70;100.00;99885.34;4988126;28;20258;-58
2022/08/27 06:23:03;;;;;;;13.20;10.07;;;;;;;20.52;100.00;99882.81;5004146;28;20183;-58
2022/08/27 06:25:31;;;;;;;12.40;9.53;;;;;;;20.77;100.00;99881.16;4992924;28;20314;-58
2022/08/27 06:27:57;;;;;;;12.30;9.63;;;;;;;20.52;100.00;99888.03;4993663;28;20270;-58
2022/08/27 06:30:23;;;;;;;11.73;10.53;;;;;;;20.49;100.00;99886.50;4984397;28;20255;-58
2022/08/27 06:32:50;;;;;;;10.50;8.90;;;;;;;20.40;100.00;99890.88;5000052;28;20191;-58
2022/08/27 06:35:15;;;;;;;13.97;9.87;;;;;;;20.46;100.00;99886.84;4995924;28;20658;-58
2022/08/27 06:37:41;;;;;;;11.07;9.37;;;;;;;20.40;100.00;99885.63;4986682;28;20196;-57
2022/08/27 06:40:08;;;;;;;10.40;9.33;;;;;;;20.46;100.00;99892.06;4976515;28;20621;-58
2022/08/27 06:42:33;;;;;;;15.83;10.73;;;;;;;20.27;100.00;99887.84;5018561;28;20685;-58
2022/08/27 06:44:59;;;;;;;12.90;10.00;;;;;;;20.37;100.00;99883.34;4993689;28;20266;-58
2022/08/27 06:47:24;;;;;;;12.80;8.87;;;;;;;20.41;100.00;99886.47;4992753;28;20540;-58
2022/08/27 06:49:50;;;;;;;13.50;9.50;;;;;;;20.29;100.00;99885.91;4993401;28;20555;-57
2022/08/27 06:52:15;;;;;;;13.00;9.83;;;;;;;20.37;100.00;99883.34;4998610;28;20349;-59
2022/08/27 06:54:40;;;;;;;16.60;10.03;;;;;;;20.36;100.00;99884.31;4992512;28;20191;-58
2022/08/27 06:57:06;;;;;;;13.20;9.30;;;;;;;20.67;100.00;99883.84;4993394;28;20183;-57
2022/08/27 06:59:32;;;;;;;10.53;9.03;;;;;;;20.75;100.00;99888.34;4993155;28;20245;-58
2022/08/27 07:01:57;;;;;;;9.90;8.63;;;;;;;20.70;100.00;99891.41;4971911;28;20247;-59
2022/08/27 07:04:24;;;;;;;16.43;8.73;;;;;;;20.74;100.00;99897.97;4992454;28;20214;-58
2022/08/27 07:06:49;;;;;;;13.33;9.73;;;;;;;20.75;100.00;99901.41;4992957;28;20230;-58
2022/08/27 07:09:15;;;;;;;12.03;8.80;;;;;;;20.86;100.00;99900.31;4989462;28;20188;-57
2022/08/27 07:11:41;;;;;;;10.90;7.97;;;;;;;21.02;100.00;99899.59;4999550;28;20689;-57
2022/08/27 07:14:07;;;;;;;13.37;8.53;;;;;;;21.18;100.00;99904.88;4993502;28;20511;-58
2022/08/27 07:16:33;;;;;;;12.80;8.70;;;;;;;21.17;100.00;99907.66;4987849;28;20748;-62
2022/08/27 07:19:00;;;;;;;12.40;8.37;;;;;;;21.38;100.00;99905.44;5000982;28;20219;-57
2022/08/27 07:21:26;;;;;;;14.60;8.20;;;;;;;21.21;100.00;99907.19;4983812;28;20682;-58
2022/08/27 07:23:53;;;;;;;11.30;8.17;;;;;;;21.34;100.00;99905.94;4990014;28;20185;-58
2022/08/27 07:26:21;;;;;;;11.67;7.80;;;;;;;21.36;100.00;99906.56;4983471;28;20191;-58
2022/08/27 07:28:47;;;;;;;10.40;7.30;;;;;;;21.49;100.00;99904.31;4990647;28;20226;-57
2022/08/27 07:31:19;;;;;;;11.77;8.17;;;;;;;21.52;100.00;99903.19;4973227;28;20238;-59
2022/08/27 07:33:45;;;;;;;10.73;7.50;;;;;;;21.31;100.00;99911.47;4994892;28;20176;-60
2022/08/27 07:36:11;;;;;;;10.63;6.80;;;;;;;21.52;100.00;99914.50;4985404;28;20208;-59
2022/08/27 07:38:36;;;;;;;10.43;7.50;;;;;;;21.49;100.00;99913.97;4988525;28;20219;-59
2022/08/27 07:41:06;;;;;;;11.27;7.80;;;;;;;21.43;100.00;99921.50;4983227;28;20782;-58
2022/08/27 07:46:15;;;;;;;9.90;7.53;;;;;;;21.23;100.00;99920.91;4991636;28;20190;-59
2022/08/27 07:48:40;;;;;;;8.93;6.97;;;;;;;21.43;100.00;99925.91;4991616;28;20196;-61
2022/08/27 07:51:12;;;;;;;7.53;6.70;;;;;;;21.45;100.00;99924.75;4977379;28;20227;-61
2022/08/27 07:53:37;;;;;;;10.77;7.50;;;;;;;21.49;100.00;99925.25;4995403;28;20175;-61
2022/08/27 07:56:07;;;;;;;13.83;8.00;;;;;;;21.37;100.00;99921.28;4982905;28;20551;-61
2022/08/27 07:58:34;;;;;;;10.63;7.23;;;;;;;21.31;100.00;99925.38;4979692;28;20186;-60
2022/08/27 08:00:59;;;;;;;9.73;6.77;;;;;;;21.41;100.00;99933.91;4989179;28;20302;-58
2022/08/27 08:03:26;;;;;;;9.27;7.10;;;;;;;21.45;100.00;99924.75;4998853;28;20341;-58
2022/08/27 08:05:52;;;;;;;8.53;7.10;;;;;;;21.54;99.13;99924.78;4990693;28;20191;-58
2022/08/27 08:08:20;;;;;;;9.83;7.77;;;;;;;21.49;98.92;99927.88;4995786;28;20183;-57
2022/08/27 08:10:47;;;;;;;8.20;6.83;;;;;;;21.66;99.64;99931.41;4991285;28;20788;-57
2022/08/27 08:13:12;;;;;;;10.47;7.00;;;;;;;21.85;97.45;99922.41;5005268;28;20654;-57
2022/08/27 08:15:38;;;;;;;12.57;6.80;;;;;;;22.12;95.61;99928.34;4995819;28;20184;-57
2022/08/27 08:18:03;;;;;;;11.23;6.43;;;;;;;22.07;95.40;99923.59;4989505;28;20607;-57
2022/08/27 08:20:29;;;;;;;9.37;6.47;;;;;;;22.25;95.50;99923.44;4983686;28;20639;-58
2022/08/27 08:22:55;;;;;;;10.10;6.70;;;;;;;22.69;92.32;99924.88;4993279;28;20176;-57
2022/08/27 08:25:20;;;;;;;8.97;6.80;;;;;;;22.71;91.61;99925.53;4984306;28;20267;-58
2022/08/27 08:27:46;;;;;;;10.60;6.73;;;;;;;22.89;89.71;99921.88;4988173;28;20183;-57
2022/08/27 08:30:12;;;;;;;11.03;6.63;;;;;;;23.05;88.53;99934.94;4971621;28;20203;-57
2022/08/27 08:32:38;;;;;;;12.20;6.03;;;;;;;23.42;86.22;99939.75;4988357;28;20191;-58
2022/08/27 08:35:05;;;;;;;9.63;6.37;;;;;;;23.06;87.69;99941.03;4993618;28;20176;-58
2022/08/27 08:37:31;;;;;;;8.57;6.17;;;;;;;22.96;88.38;99938.59;4991645;28;20635;-58
2022/08/27 08:39:56;;;;;;;10.23;6.30;;;;;;;23.29;87.65;99943.72;4990610;28;20227;-59
2022/08/27 08:42:30;;;;;;;9.57;6.13;;;;;;;23.23;85.32;99943.59;5001981;28;20226;-57
2022/08/27 08:44:57;;;;;;;9.30;6.83;;;;;;;22.99;85.95;99940.84;4986311;28;20274;-58
2022/08/27 08:47:31;;;;;;;8.73;6.10;;;;;;;23.18;86.40;99939.69;4995227;28;20184;-58
2022/08/27 08:50:24;;;;;;;10.30;6.80;;;;;;;23.55;83.60;99945.25;4992253;28;20249;-60
2022/08/27 08:53:12;;;;;;;9.53;5.97;;;;;;;23.33;84.88;99937.16;4978444;28;20215;-58
2022/08/27 08:55:52;;;;;;;6.77;6.00;;;;;;;23.79;82.32;99939.06;4997682;28;20198;-58
2022/08/27 08:58:38;;;;;;;10.30;5.63;;;;;;;23.96;79.34;99944.22;4982344;28;20187;-56
2022/08/27 09:01:06;;;;;;;7.03;5.87;;;;;;;24.19;78.54;99938.97;4987429;28;20254;-59
2022/08/27 09:03:35;;;;;;;10.07;6.40;;;;;;;23.98;78.71;99953.56;4975461;28;20235;-56
2022/08/27 09:06:05;;;;;;;9.83;6.00;;;;;;;24.07;78.95;99956.13;4968558;28;20180;-57
2022/08/27 09:08:36;;;;;;;9.03;5.80;;;;;;;24.30;77.84;99946.41;4956520;28;20185;-57
2022/08/27 09:11:17;;;;;;;10.23;5.63;;;;;;;24.63;75.37;99940.03;4960839;28;20350;-57
2022/08/27 09:13:52;;;;;;;10.23;6.30;;;;;;;24.64;73.85;99946.94;4967532;28;20183;-58
2022/08/27 09:16:17;;;;;;;8.43;6.40;;;;;;;24.83;73.85;99950.88;4976937;28;20183;-58
2022/08/27 09:18:44;;;;;;;9.63;6.33;;;;;;;24.82;75.13;99946.63;4975065;28;20195;-58
2022/08/27 09:21:22;;;;;;;6.70;5.78;;;;;;;24.87;72.91;99951.31;4974498;28;20227;-58
2022/08/27 09:23:50;;;;;;;8.93;5.68;;;;;;;25.34;71.31;99951.94;4973156;28;20597;-57
2022/08/27 09:26:21;;;;;;;10.15;6.35;;;;;;;25.77;67.86;99963.38;4969209;28;20550;-57
2022/08/27 09:31:35;;;;;;;7.03;5.07;;;;;;;25.46;69.22;99955.75;4992169;28;20237;-58
2022/08/27 09:34:03;;;;;;;7.45;5.70;;;;;;;25.57;67.74;99954.47;4986291;28;20190;-59
2022/08/27 09:36:29;;;;;;;7.20;5.35;;;;;;;26.33;63.44;99953.19;4994466;28;20717;-58
2022/08/27 09:38:57;;;;;;;9.25;5.07;;;;;;;26.62;62.73;99957.47;4981062;28;20187;-59
2022/08/27 09:41:28;;;;;;;8.60;5.25;;;;;;;28.23;57.14;99951.97;4992673;28;20260;-59
2022/08/27 09:44:06;;;;;;;7.35;5.50;;;;;;;28.35;56.06;99958.28;4995630;28;20649;-56
2022/08/27 09:46:31;;;;;;;7.85;5.63;;;;;;;28.11;55.21;99957.88;4990138;28;20207;-62
2022/08/27 09:48:56;;;;;;;6.93;4.97;;;;;;;28.10;54.78;99956.25;5005486;28;20556;-67
2022/08/27 09:51:26;;;;;;;7.32;4.93;;;;;;;27.58;55.75;99957.78;4994619;28;20736;-56
2022/08/27 09:53:57;;;;;;;10.15;5.38;;;;;;;27.20;58.75;99957.19;4989925;28;20202;-71
2022/08/27 09:56:33;;;;;;;8.55;4.82;;;;;;;27.12;59.93;99956.56;4989959;28;20636;-57
2022/08/27 09:59:09;;;;;;;6.53;5.15;;;;;;;26.29;62.37;99954.56;4987414;28;20631;-58
2022/08/27 10:01:48;;;;;;;7.57;6.20;;;;;;;27.72;54.30;99948.84;4977095;28;20487;-56
2022/08/27 10:04:16;;;;;;;8.85;5.40;;;;;;;28.74;52.36;99945.22;4990568;28;20202;-58
2022/08/27 10:06:48;;;;;;;7.10;4.40;;;;;;;29.59;49.29;99942.47;4994394;28;20198;-57
2022/08/27 10:09:29;;;;;;;7.25;4.88;;;;;;;29.67;49.72;99952.03;4981926;28;20640;-57
2022/08/27 10:12:03;;;;;;;8.43;4.55;;;;;;;29.39;47.94;99939.13;4998129;28;20616;-57
2022/08/27 10:14:39;;;;;;;5.55;4.70;;;;;;;29.12;49.98;99942.66;4991882;28;20638;-58
2022/08/27 10:17:32;;;;;;;5.55;4.97;;;;;;;28.50;52.17;99944.84;4993353;28;20194;-58
2022/08/27 10:20:29;;;;;;;6.75;4.60;;;;;;;27.63;57.46;99939.50;4990380;28;20254;-58
2022/08/27 10:23:13;;;;;;;9.73;4.93;;;;;;;27.80;55.52;99943.38;4978332;28;20749;-58
2022/08/27 10:26:00;;;;;;;6.53;5.10;;;;;;;27.56;56.00;99936.81;4993977;28;20662;-58
2022/08/27 10:28:32;;;;;;;5.25;4.85;;;;;;;27.00;58.61;99933.38;4992064;28;20647;-57
2022/08/27 10:31:44;;;;;;;10.18;5.38;;;;;;;26.58;61.61;99940.38;4984674;28;20268;-59
2022/08/27 10:34:23;;;;;;;6.28;5.60;;;;;;;26.48;63.51;99938.06;4988619;28;20198;-57
2022/08/27 10:37:35;;;;;;;11.35;5.85;;;;;;;25.99;62.46;99933.63;4988854;28;20581;-57
2022/08/27 10:40:20;;;;;;;8.48;5.57;;;;;;;25.63;63.30;99940.56;4984040;28;20561;-56
2022/08/27 10:43:32;;;;;;;6.72;5.55;;;;;;;26.39;59.78;99939.22;4982912;28;20331;-58
2022/08/27 10:46:27;;;;;;;8.10;5.40;;;;;;;26.80;58.94;99933.22;4985791;28;21485;-58
2022/08/27 10:49:10;;;;;;;5.63;4.85;;;;;;;26.89;56.77;99936.53;4988085;28;20187;-57
2022/08/27 10:51:55;;;;;;;6.60;5.35;;;;;;;26.65;57.45;99933.31;4981406;28;20247;-58
2022/08/27 10:54:31;;;;;;;10.75;5.57;;;;;;;26.69;59.23;99928.47;4984469;28;20180;-59
2022/08/27 10:57:21;;;;;;;8.60;5.35;;;;;;;26.74;57.03;99932.19;4992882;28;20179;-57
2022/08/27 10:59:58;;;;;;;8.18;5.30;;;;;;;26.84;56.98;99931.03;4987375;28;20640;-57
2022/08/27 11:02:34;;;;;;;7.70;5.07;;;;;;;27.37;55.82;99925.97;4957721;28;20223;-58
2022/08/27 11:05:13;;;;;;;6.68;5.03;;;;;;;27.57;55.55;99927.88;4992514;28;20175;-57
2022/08/27 11:07:43;;;;;;;5.32;4.82;;;;;;;27.73;53.55;99931.19;4993120;28;20182;-57
2022/08/27 11:10:31;;;;;;;6.18;4.90;;;;;;;27.02;55.92;99936.59;4982775;28;20203;-58
2022/08/27 11:13:07;;;;;;;5.85;5.25;;;;;;;26.80;59.27;99930.59;4991829;28;20241;-57
2022/08/27 11:15:36;;;;;;;5.70;5.10;;;;;;;26.56;62.17;99937.13;4983020;28;20246;-57
2022/08/27 11:18:29;;;;;;;6.65;5.50;;;;;;;25.99;65.07;99937.06;4984111;28;20673;-57
2022/08/27 11:21:08;;;;;;;7.45;5.10;;;;;;;25.98;65.67;99934.63;4985868;28;20242;-59
2022/08/27 11:24:01;;;;;;;6.13;5.53;;;;;;;25.71;67.20;99929.91;4980492;28;20184;-58
2022/08/27 11:26:30;;;;;;;7.13;4.55;;;;;;;25.48;69.59;99932.69;4991486;28;20604;-59
2022/08/27 11:29:00;;;;;;;8.05;5.07;;;;;;;25.33;70.47;99924.81;4980761;28;20176;-58
2022/08/27 11:31:40;;;;;;;5.60;5.10;;;;;;;25.32;70.11;99932.88;4964340;28;20257;-58
2022/08/27 11:34:37;;;;;;;7.13;4.85;;;;;;;25.06;71.18;99921.03;4988710;28;20274;-57
2022/08/27 11:37:26;;;;;;;4.93;4.53;;;;;;;24.94;73.76;99925.94;4981136;28;20180;-58
2022/08/27 11:40:22;;;;;;;5.30;4.50;;;;;;;25.33;70.73;99926.59;4983552;28;20718;-57